Cairns, Australia
Current Conditions -  °F | °C
As of 4:30 AM on Wednesday 22 Oct 2014 (Local Time) from YBCS Reporting Station
Few Clouds Few Clouds  
Wind Chill: 72°   Ceiling: Unl
Heat Index: 72°   Visibility: 6mi
Dew Point: 61°   Wind: 12mph
Humidity: 69%   Direction: 170°S
Pressure: 30"   Gusts: NA
Location:  16.93°S, 145.78°E
Report Text: YBCS 211830Z 17010KT 9999 FEW025 22/16 Q1016
Loading
Personal Weather Stations






























Interactive Weather Map
Tropical Storm Tracking
New forecast layout! Learn more

10-Day Weather Forecast

Advertisements
Track Severe Weather on mobile